地図

経路データ

SID SEASON NUMBER BASIN SUBBASIN NAME ISO_TIME NATURE LAT LON WMO_WIND WMO_PRES WMO_AGENCY TRACK_TYPE DIST2LAND LANDFALL IFLAG USA_AGENCY USA_ATCF_ID USA_LAT USA_LON USA_RECORD USA_STATUS USA_WIND USA_PRES USA_SSHS USA_R34_NE USA_R34_SE USA_R34_SW USA_R34_NW USA_R50_NE USA_R50_SE USA_R50_SW USA_R50_NW USA_R64_NE USA_R64_SE USA_R64_SW USA_R64_NW USA_POCI USA_ROCI USA_RMW USA_EYE TOKYO_LAT TOKYO_LON TOKYO_GRADE TOKYO_WIND TOKYO_PRES TOKYO_R50_DIR TOKYO_R50_LONG TOKYO_R50_SHORT TOKYO_R30_DIR TOKYO_R30_LONG TOKYO_R30_SHORT TOKYO_LAND CMA_LAT CMA_LON CMA_CAT CMA_WIND CMA_PRES HKO_LAT HKO_LON HKO_CAT HKO_WIND HKO_PRES NEWDELHI_LAT NEWDELHI_LON NEWDELHI_GRADE NEWDELHI_WIND NEWDELHI_PRES NEWDELHI_CI NEWDELHI_DP NEWDELHI_POCI REUNION_LAT REUNION_LON REUNION_TYPE REUNION_WIND REUNION_PRES REUNION_TNUM REUNION_CI REUNION_RMW REUNION_R34_NE REUNION_R34_SE REUNION_R34_SW REUNION_R34_NW REUNION_R50_NE REUNION_R50_SE REUNION_R50_SW REUNION_R50_NW REUNION_R64_NE REUNION_R64_SE REUNION_R64_SW REUNION_R64_NW BOM_LAT BOM_LON BOM_TYPE BOM_WIND BOM_PRES BOM_TNUM BOM_CI BOM_RMW BOM_R34_NE BOM_R34_SE BOM_R34_SW BOM_R34_NW BOM_R50_NE BOM_R50_SE BOM_R50_SW BOM_R50_NW BOM_R64_NE BOM_R64_SE BOM_R64_SW BOM_R64_NW BOM_ROCI BOM_POCI BOM_EYE BOM_POS_METHOD BOM_PRES_METHOD NADI_LAT NADI_LON NADI_CAT NADI_WIND NADI_PRES WELLINGTON_LAT WELLINGTON_LON WELLINGTON_WIND WELLINGTON_PRES DS824_LAT DS824_LON DS824_STAGE DS824_WIND DS824_PRES TD9636_LAT TD9636_LON TD9636_STAGE TD9636_WIND TD9636_PRES TD9635_LAT TD9635_LON TD9635_WIND TD9635_PRES TD9635_ROCI NEUMANN_LAT NEUMANN_LON NEUMANN_CLASS NEUMANN_WIND NEUMANN_PRES MLC_LAT MLC_LON MLC_CLASS MLC_WIND MLC_PRES USA_GUST BOM_GUST BOM_GUST_PER REUNION_GUST REUNION_GUST_PER USA_SEAHGT USA_SEARAD_NE USA_SEARAD_SE USA_SEARAD_SW USA_SEARAD_NW STORM_SPEED STORM_DIR
1970245N22087 1970 102 NI BB NOT_NAMED 1970-09-01 18:00:00 TS 22.3000 87.3000 main 0 0 O________O____ jtwc_io IO101970 22.3000 87.3000 -1 22.3000 87.3000 TC 2 295
1970245N22087 1970 102 NI BB NOT_NAMED 1970-09-01 21:00:00 TS 22.3375 87.2100 main 0 0 P________P____ IO101970 22.3375 87.2100 -1 22.3375 87.2100 TC 2 299
1970245N22087 1970 102 NI BB NOT_NAMED 1970-09-02 00:00:00 TS 22.4000 87.1000 main 0 0 O________O____ jtwc_io IO101970 22.4000 87.1000 -1 22.4000 87.1000 TC 25 3 305
1970245N22087 1970 102 NI BB NOT_NAMED 1970-09-02 03:00:00 TS 22.5000 86.9622 main 0 0 P________PO___ IO101970 22.5000 86.9575 -1 22.5000 86.9575 TC 25 22.5000 87.0000 1 3 305
1970245N22087 1970 102 NI BB NOT_NAMED 1970-09-02 06:00:00 TS 22.5941 86.8007 main 0 0 O________OP___ jtwc_io IO101970 22.6000 86.8000 -1 22.6000 86.8000 TC 25 22.5707 86.8033 1 3 297
1970245N22087 1970 102 NI BB NOT_NAMED 1970-09-02 09:00:00 TS 22.6481 86.6405 main 0 0 P________PP___ IO101970 22.6500 86.6499 -1 22.6500 86.6499 TC 25 22.6430 86.6152 1 3 291
1970245N22087 1970 102 NI BB NOT_NAMED 1970-09-02 12:00:00 TS 22.7063 86.4815 main 0 0 O________OP___ jtwc_io IO101970 22.7000 86.5000 -1 22.7000 86.5000 TC 25 22.7188 86.4445 1 3 298
1970245N22087 1970 102 NI BB NOT_NAMED 1970-09-02 15:00:00 TS 22.8000 86.3334 main 0 0 P________PO___ IO101970 22.8000 86.3500 -1 22.8000 86.3500 TC 25 22.8000 86.3000 1 3 305
1970245N22087 1970 102 NI BB NOT_NAMED 1970-09-02 18:00:00 TS 22.8956 86.1945 main 0 0 O________OP___ jtwc_io IO101970 22.9000 86.2000 -1 22.9000 86.2000 TC 25 22.8867 86.1834 1 3 303
1970245N22087 1970 102 NI BB NOT_NAMED 1970-09-02 21:00:00 TS 22.9622 86.0658 main 0 0 P________PP___ IO101970 22.9574 86.0649 -1 22.9574 86.0649 TC 25 22.9717 86.0675 1 3 294
1970245N22087 1970 102 NI BB NOT_NAMED 1970-09-03 00:00:00 TS 23.0153 85.9059 main 0 0 O________OP___ jtwc_io IO101970 23.0000 85.9000 -1 23.0000 85.9000 TC 25 23.0459 85.9178 1 4 288
1970245N22087 1970 102 NI BB NOT_NAMED 1970-09-03 03:00:00 TS 23.0716 85.6967 main 0 0 P________PO___ IO101970 23.0573 85.6950 -1 23.0573 85.6950 TC 25 23.1000 85.7000 1 5 281
1970245N22087 1970 102 NI BB NOT_NAMED 1970-09-03 06:00:00 TS 23.1073 85.3919 main 0 0 O________OP___ jtwc_io IO101970 23.1000 85.4000 -1 23.1000 85.4000 TC 25 23.1218 85.3758 1 7 274
1970245N22087 1970 102 NI BB NOT_NAMED 1970-09-03 09:00:00 TS 23.1127 84.9757 main 0 0 P________PP___ IO101970 23.1076 84.9724 -1 23.1076 84.9724 TC 25 23.1229 84.9822 1 8 270
1970245N22087 1970 102 NI BB NOT_NAMED 1970-09-03 12:00:00 TS 23.1041 84.5159 main 0 0 O________OP___ jtwc_io IO101970 23.1000 84.5000 -1 23.1000 84.5000 TC 25 23.1124 84.5476 1 8 269
1970245N22087 1970 102 NI BB NOT_NAMED 1970-09-03 15:00:00 TS 23.0999 84.1000 main 0 0 P________PO___ IO101970 23.0998 84.1000 -1 23.0998 84.1000 TC 25 23.1000 84.1000 1 8 270
1970245N22087 1970 102 NI BB NOT_NAMED 1970-09-03 18:00:00 TS 23.1013 83.6941 main 0 0 O________OP___ jtwc_io IO101970 23.1000 83.7000 -1 23.1000 83.7000 TC 25 23.1038 83.6823 1 8 270
1970245N22087 1970 102 NI BB NOT_NAMED 1970-09-03 21:00:00 TS 23.1024 83.2525 main 0 0 P________PP___ IO101970 23.1000 83.2500 -1 23.1000 83.2500 TC 25 23.1072 83.2576 1 8 270
1970245N22087 1970 102 NI BB NOT_NAMED 1970-09-04 00:00:00 TS 23.1023 82.8097 main 0 0 O________OP___ jtwc_io IO101970 23.1000 82.8000 -1 23.1000 82.8000 TC 25 23.1069 82.8292 1 8 270
1970245N22087 1970 102 NI BB NOT_NAMED 1970-09-04 03:00:00 TS 23.1049 82.4001 main 0 0 P________PO___ IO101970 23.1073 82.4001 -1 23.1073 82.4001 TC 25 23.1000 82.4000 1 8 269
1970245N22087 1970 102 NI BB NOT_NAMED 1970-09-04 06:00:00 TS 23.0928 81.9794 main 0 0 O________OP___ jtwc_io IO101970 23.1000 82.0000 -1 23.1000 82.0000 TC 25 23.0784 81.9383 1 8 266
1970245N22087 1970 102 NI BB NOT_NAMED 1970-09-04 09:00:00 TS 23.0502 81.5223 main 0 0 P________PP___ IO101970 23.0501 81.5424 -1 23.0501 81.5424 TC 25 23.0504 81.4823 1 8 264
1970245N22087 1970 102 NI BB NOT_NAMED 1970-09-04 12:00:00 TS 23.0074 81.0867 main 0 0 O________OP___ jtwc_io IO101970 23.0000 81.1000 -1 23.0000 81.1000 TC 25 23.0222 81.0602 1 8 266
1970245N22087 1970 102 NI BB NOT_NAMED 1970-09-04 15:00:00 TS 22.9950 80.6984 main 0 0 P________PO___ IO101970 22.9925 80.6976 -1 22.9925 80.6976 TC 25 23.0000 80.7000 1 6 269
1970245N22087 1970 102 NI BB NOT_NAMED 1970-09-04 18:00:00 TS 22.9985 80.4308 main 0 0 O________OP___ jtwc_io IO101970 23.0000 80.4000 -1 23.0000 80.4000 TC 25 22.9955 80.4924 1 4 271
1970245N22087 1970 102 NI BB NOT_NAMED 1970-09-04 21:00:00 TS 22.9991 80.3176 main 0 0 P________PP___ IO101970 22.9997 80.3075 -1 22.9997 80.3075 TC 25 22.9979 80.3377 1 2 271
1970245N22087 1970 102 NI BB NOT_NAMED 1970-09-05 00:00:00 TS 23.0005 80.1881 main 0 0 O________OP___ jtwc_io IO101970 23.0000 80.2000 -1 23.0000 80.2000 TC 25 23.0015 80.1642 1 4 271
1970245N22087 1970 102 NI BB NOT_NAMED 1970-09-05 03:00:00 TS 23.0050 79.8784 main 0 0 P________PO___ IO101970 23.0074 79.8676 -1 23.0074 79.8676 TC 25 23.0000 79.9000 1 7 269
1970245N22087 1970 102 NI BB NOT_NAMED 1970-09-05 06:00:00 TS 22.9943 79.4182 main 0 0 O________OP___ jtwc_io IO101970 23.0000 79.4000 -1 23.0000 79.4000 TC 25 22.9828 79.4545 1 9 267
1970245N22087 1970 102 NI BB NOT_NAMED 1970-09-05 09:00:00 TS 22.9527 78.8906 main 0 0 P________PP___ IO101970 22.9499 78.8798 -1 22.9499 78.8798 TC 25 22.9583 78.9123 1 10 265
1970245N22087 1970 102 NI BB NOT_NAMED 1970-09-05 12:00:00 TS 22.9098 78.3046 main 0 0 O________OP___ jtwc_io IO101970 22.9000 78.3000 -1 22.9000 78.3000 TC 25 22.9295 78.3139 1 11 267
1970245N22087 1970 102 NI AS NOT_NAMED 1970-09-05 15:00:00 TS 22.9000 77.7001 main 0 0 P________PO___ IO101970 22.8999 77.7002 -1 22.8999 77.7002 TC 25 22.9000 77.7000 1 11 269
1970245N22087 1970 102 NI AS NOT_NAMED 1970-09-05 18:00:00 TS 22.8903 77.1040 main 0 0 O________OP___ jtwc_io IO101970 22.9000 77.1000 -1 22.9000 77.1000 TC 25 22.8709 77.1118 1 11 267
1970245N22087 1970 102 NI AS NOT_NAMED 1970-09-05 21:00:00 TS 22.8473 76.5349 main 0 0 P________PP___ IO101970 22.8497 76.5424 -1 22.8497 76.5424 TC 25 22.8426 76.5199 1 10 265
1970245N22087 1970 102 NI AS NOT_NAMED 1970-09-06 00:00:00 TS 22.8060 75.9810 main 0 0 O________OP___ jtwc_io IO101970 22.8000 76.0000 -1 22.8000 76.0000 TC 25 22.8179 75.9430 1 10 267
1970245N22087 1970 102 NI AS NOT_NAMED 1970-09-06 03:00:00 TS 22.7950 75.4234 main 0 0 P________PO___ IO101970 22.7925 75.4351 -1 22.7925 75.4351 TC 25 22.8000 75.4000 1 10 269
1970245N22087 1970 102 NI AS NOT_NAMED 1970-09-06 06:00:00 TS 22.7893 74.8992 main 0 0 O________OP___ jtwc_io IO101970 22.8000 74.9000 -1 22.8000 74.9000 TC 25 22.7678 74.8975 1 9 269
1970245N22087 1970 102 NI AS NOT_NAMED 1970-09-06 09:00:00 TS 22.7821 74.4290 main 0 0 P________PP___ IO101970 22.7998 74.4275 -1 22.7998 74.4275 TC 25 22.7468 74.4320 1 8 270
1970245N22087 1970 102 NI AS NOT_NAMED 1970-09-06 12:00:00 TS 22.7841 74.0002 main 0 0 O________OP___ jtwc_io IO101970 22.8000 74.0000 -1 22.8000 74.0000 TC 25 22.7524 74.0005 1 8 270
1970245N22087 1970 102 NI AS NOT_NAMED 1970-09-06 15:00:00 TS 22.7849 73.5949 main 0 0 P________PO___ IO101970 22.7773 73.5923 -1 22.7773 73.5923 TC 25 22.8000 73.6000 1 7 273
1970245N22087 1970 102 NI AS NOT_NAMED 1970-09-06 18:00:00 TS 22.8194 73.1923 main 0 0 O________OP___ jtwc_io IO101970 22.8000 73.2000 -1 22.8000 73.2000 TC 25 22.8581 73.1768 1 8 280
1970245N22087 1970 102 NI AS NOT_NAMED 1970-09-06 21:00:00 TS 22.9201 72.7710 main 0 0 P________PP___ IO101970 22.8976 72.7626 -1 22.8976 72.7626 TC 25 22.9651 72.7878 1 8 292
1970245N22087 1970 102 NI AS NOT_NAMED 1970-09-07 00:00:00 TS 23.1132 72.4183 main 0 0 O________OP___ jtwc_io IO101970 23.1000 72.4000 -1 23.1000 72.4000 TC 25 23.1395 72.4549 1 7 312
1970245N22087 1970 102 NI AS NOT_NAMED 1970-09-07 03:00:00 TS 23.3982 72.1983 main 0 0 P________PO___ IO101970 23.3973 72.1974 -1 23.3973 72.1974 TC 25 23.4000 72.2000 1 8 336
1970245N22087 1970 102 NI AS NOT_NAMED 1970-09-07 06:00:00 TS 23.7972 72.0858 main 0 0 O________OP___ jtwc_io IO101970 23.8000 72.1000 -1 23.8000 72.1000 TC 25 23.7916 72.0575 1 9 350
1970245N22087 1970 102 NI AS NOT_NAMED 1970-09-07 09:00:00 TS 24.2823 72.0245 main 0 0 P________PP___ IO101970 24.2925 72.0423 -1 24.2925 72.0423 TC 25 24.2619 71.9890 1 10 354
1970245N22087 1970 102 NI AS NOT_NAMED 1970-09-07 12:00:00 TS 24.7837 71.9837 main 0 0 O________OP___ jtwc_io IO101970 24.8000 72.0000 -1 24.8000 72.0000 TC 25 24.7512 71.9511 1 9 354
1970245N22087 1970 102 NI AS NOT_NAMED 1970-09-07 15:00:00 TS 25.2200 71.9100 main 0 0 P________PO___ IO101970 25.2300 71.9150 -1 25.2300 71.9150 TC 25 25.2000 71.9000 1 8 349
1970245N22087 1970 102 NI AS NOT_NAMED 1970-09-07 18:00:00 TS 25.6087 71.8112 main 0 0 O________OP___ jtwc_io IO101970 25.6000 71.8000 -1 25.6000 71.8000 TC 25 25.6261 71.8336 1 8 346
1970245N22087 1970 102 NI AS NOT_NAMED 1970-09-07 21:00:00 TS 25.9745 71.6992 main 0 0 P________PP___ IO101970 25.9674 71.6801 -1 25.9674 71.6801 TC 25 25.9886 71.7372 1 7 337
1970245N22087 1970 102 NI AS NOT_NAMED 1970-09-08 00:00:00 TS 26.2106 71.5240 main 0 0 O________OP___ jtwc_io IO101970 26.2000 71.5000 -1 26.2000 71.5000 TC 25 26.2319 71.5721 1 5 308
1970245N22087 1970 102 NI AS NOT_NAMED 1970-09-08 03:00:00 TS 26.2748 71.2787 main 0 0 P________PO___ IO101970 26.2621 71.2681 -1 26.2621 71.2681 TC 25 26.3000 71.3000 1 6 259
1970245N22087 1970 102 NI AS NOT_NAMED 1970-09-08 06:00:00 TS 26.0984 70.8753 main 0 0 O________OP___ jtwc_io IO101970 26.1000 70.9000 -1 26.1000 70.9000 TC 25 26.0951 70.8259 1 11 237
1970245N22087 1970 102 NI AS NOT_NAMED 1970-09-08 09:00:00 TS 25.6897 70.2903 main 0 0 P________PP___ IO101970 25.6731 70.3060 -1 25.6731 70.3060 TC 25 25.7228 70.2589 1 14 231
1970245N22087 1970 102 NI AS NOT_NAMED 1970-09-08 12:00:00 TS 25.2296 69.6961 main 0 0 O________OP___ jtwc_io IO101970 25.2000 69.7000 -1 25.2000 69.7000 TC 25 25.2887 69.6882 1 12 231
1970245N22087 1970 102 NI AS NOT_NAMED 1970-09-08 15:00:00 TS 24.9365 69.2554 main 0 0 P________PO___ IO101970 24.9548 69.2831 -1 24.9548 69.2831 TC 25 24.9000 69.2000 1 8 235
1970245N22087 1970 102 NI AS NOT_NAMED 1970-09-08 18:00:00 TS 24.7709 68.9818 main 0 0 O________OP___ jtwc_io IO101970 24.8000 69.0000 -1 24.8000 69.0000 TC 25 24.7128 68.9453 1 5 231
1970245N22087 1970 102 NI AS NOT_NAMED 1970-09-08 21:00:00 TS 24.6241 68.8244 main 0 0 P________PP___ IO101970 24.6422 68.8503 -1 24.6422 68.8503 TC 25 24.5880 68.7727 1 4 226
1970245N22087 1970 102 NI AS NOT_NAMED 1970-09-09 00:00:00 TS 24.4981 68.6712 main 0 0 O________OP___ jtwc_io IO101970 24.5000 68.7000 -1 24.5000 68.7000 TC 25 24.4942 68.6136 1 5 236
1970245N22087 1970 102 NI AS NOT_NAMED 1970-09-09 03:00:00 TS 24.3666 68.3967 main 0 0 P________PO___ IO101970 24.3500 68.3950 -1 24.3500 68.3950 TC 25 24.4000 68.4000 1 7 245
1970245N22087 1970 102 NI AS NOT_NAMED 1970-09-09 06:00:00 TS 24.2137 68.0144 main 0 0 O________OP___ jtwc_io IO101970 24.2000 68.0000 -1 24.2000 68.0000 TC 25 24.2412 68.0432 1 8 247
1970245N22087 1970 102 NI AS NOT_NAMED 1970-09-09 09:00:00 TS 24.0543 67.5797 main 0 0 P________PP___ IO101970 24.0426 67.5574 -1 24.0426 67.5574 TC 25 24.0778 67.6242 1 9 249
1970245N22087 1970 102 NI AS NOT_NAMED 1970-09-09 12:00:00 TS 23.9085 67.1227 main 32 32 O________OP___ jtwc_io IO101970 23.9000 67.1000 -1 23.9000 67.1000 TC 25 23.9255 67.1682 1 8 251
1970245N22087 1970 102 NI AS NOT_NAMED 1970-09-09 15:00:00 TS 23.7848 66.7050 main 74 74 P________PO___ IO101970 23.7772 66.7075 -1 23.7772 66.7075 TC 25 23.8000 66.7000 1 8 256
1970245N22087 1970 102 NI AS NOT_NAMED 1970-09-09 18:00:00 TS 23.7085 66.2778 main 116 116 O________OP___ jtwc_io IO101970 23.7000 66.3000 -1 23.7000 66.3000 TC 25 23.7255 66.2334 1 8 264
1970245N22087 1970 102 NI AS NOT_NAMED 1970-09-09 21:00:00 TS 23.6927 65.7880 main 153 153 P________PP___ IO101970 23.7001 65.8003 -1 23.7001 65.8003 TC 25 23.6778 65.7633 1 9 268
1970245N22087 1970 102 NI AS NOT_NAMED 1970-09-10 00:00:00 TS 23.6804 65.3038 main 178 172 O________OP___ jtwc_io IO101970 23.7000 65.3000 -1 23.7000 65.3000 TC 25 23.6412 65.3114 1 8 264
1970245N22087 1970 102 NI AS NOT_NAMED 1970-09-10 03:00:00 TS 23.6049 64.8799 main 179 178 P________PO___ IO101970 23.6074 64.8699 -1 23.6074 64.8699 TC 25 23.6000 64.9000 1 7 257
1970245N22087 1970 102 NI AS NOT_NAMED 1970-09-10 06:00:00 TS 23.5106 64.5136 main 190 189 O________OP___ jtwc_io IO101970 23.5000 64.5000 -1 23.5000 64.5000 TC 25 23.5317 64.5407 1 7 256
1970245N22087 1970 102 NI AS NOT_NAMED 1970-09-10 09:00:00 TS 23.4523 64.1884 main 191 191 P________PP___ IO101970 23.4499 64.1701 -1 23.4499 64.1701 TC 30 23.4570 64.2251 1 6 258
1970245N22087 1970 102 NI AS NOT_NAMED 1970-09-10 12:00:00 TS 23.3929 63.9156 main 205 203 O________OP___ jtwc_io IO101970 23.4000 63.9000 -1 23.4000 63.9000 TC 35 23.3787 63.9469 1 5 252
1970245N22087 1970 102 NI AS NOT_NAMED 1970-09-10 15:00:00 TS 23.2999 63.6900 main 213 212 P________PO___ IO101970 23.2999 63.6850 -1 23.2999 63.6850 TC 35 23.3000 63.7000 2 4 245
1970245N22087 1970 102 NI AS NOT_NAMED 1970-09-10 18:00:00 TS 23.2042 63.4850 main 223 223 O________OP___ jtwc_io IO101970 23.2000 63.5000 -1 23.2000 63.5000 TC 35 23.2126 63.4550 2 4 247
1970245N22087 1970 102 NI AS NOT_NAMED 1970-09-10 21:00:00 TS 23.1374 63.2750 main 235 234 P________PP___ IO101970 23.1425 63.2925 -1 23.1425 63.2925 TC 35 23.1273 63.2400 2 4 252
1970245N22087 1970 102 NI AS NOT_NAMED 1970-09-11 00:00:00 TS 23.0844 63.0850 main 234 231 O________OP___ jtwc_io IO101970 23.1000 63.1000 -1 23.1000 63.1000 TC 35 23.0533 63.0550 2 3 251
1970245N22087 1970 102 NI AS NOT_NAMED 1970-09-11 03:00:00 TS 23.0283 62.9233 main 240 238 P________PO___ IO101970 23.0425 62.9350 -1 23.0425 62.9350 TC 35 23.0000 62.9000 3 3 251
1970245N22087 1970 102 NI AS NOT_NAMED 1970-09-11 06:00:00 TS 22.9941 62.7932 main 238 236 O________OP___ jtwc_io IO101970 23.0000 62.8000 -1 23.0000 62.8000 TC 35 22.9823 62.7795 3 2 260
1970245N22087 1970 102 NI AS NOT_NAMED 1970-09-11 09:00:00 TS 22.9899 62.6901 main 236 235 P________PP___ IO101970 22.9925 62.6925 -1 22.9925 62.6925 TC 35 22.9848 62.6852 3 2 271
1970245N22087 1970 102 NI AS NOT_NAMED 1970-09-11 12:00:00 TS 22.9983 62.5994 main 235 234 O________OP___ jtwc_io IO101970 23.0000 62.6000 -1 23.0000 62.6000 TC 35 22.9948 62.5983 3 2 275
1970245N22087 1970 102 NI AS NOT_NAMED 1970-09-11 15:00:00 TS 23.0050 62.5100 main 234 231 P________PO___ IO101970 23.0075 62.5150 -1 23.0075 62.5150 TC 35 23.0000 62.5000 3 2 268
1970245N22087 1970 102 NI AS NOT_NAMED 1970-09-11 18:00:00 TS 22.9927 62.3867 main 231 227 O________OP___ jtwc_io IO101970 23.0000 62.4000 -1 23.0000 62.4000 TC 35 22.9782 62.3603 3 3 259
1970245N22087 1970 102 NI AS NOT_NAMED 1970-09-11 21:00:00 TS 22.9501 62.2024 main 227 227 P________PP___ IO101970 22.9501 62.1999 -1 22.9501 62.1999 TC 35 22.9501 62.2074 3 4 256
1970245N22087 1970 102 NI AS NOT_NAMED 1970-09-12 00:00:00 TS 22.9073 62.0170 main 232 222 O________OP___ jtwc_io IO101970 22.9000 62.0000 -1 22.9000 62.0000 TC 35 22.9219 62.0509 3 3 259
1970245N22087 1970 102 NI AS NOT_NAMED 1970-09-12 03:00:00 TS 22.8950 61.8950 main 222 212 P________PO___ IO101970 22.8924 61.8925 -1 22.8924 61.8925 TC 35 22.9000 61.9000 3 2 267
1970245N22087 1970 102 NI AS NOT_NAMED 1970-09-12 06:00:00 TS 22.8976 61.7893 main 212 202 O________OP___ jtwc_io IO101970 22.9000 61.8000 -1 22.9000 61.8000 TC 35 22.8928 61.7679 3 2 271
1970245N22087 1970 102 NI AS NOT_NAMED 1970-09-12 09:00:00 TS 22.8975 61.6475 main 192 183 P________PP___ IO101970 22.9000 61.6500 -1 22.9000 61.6500 TC 35 22.8924 61.6426 3 3 270
1970245N22087 1970 102 NI AS NOT_NAMED 1970-09-12 12:00:00 TS 22.8986 61.5070 main 183 173 O________OP___ jtwc_io IO101970 22.9000 61.5000 -1 22.9000 61.5000 TC 35 22.8959 61.5210 3 2 271
1970245N22087 1970 102 NI AS NOT_NAMED 1970-09-12 15:00:00 TS 22.9000 61.4000 main 173 163 P________PO___ IO101970 22.9000 61.4000 -1 22.9000 61.4000 TC 35 22.9000 61.4000 3 2 271
1970245N22087 1970 102 NI AS NOT_NAMED 1970-09-12 18:00:00 TS 22.9009 61.2909 main 163 154 O________OP___ jtwc_io IO101970 22.9000 61.3000 -1 22.9000 61.3000 TC 35 22.9022 61.2772 3 2 270
1970245N22087 1970 102 NI AS NOT_NAMED 1970-09-12 21:00:00 TS 22.9011 61.1582 main 154 135 P________PP___ IO101970 22.9001 61.1625 -1 22.9001 61.1625 TC 30 22.9026 61.1525 3 3 270
1970245N22087 1970 102 NI AS NOT_NAMED 1970-09-13 00:00:00 TS 22.9008 61.0133 main 135 125 O________OP___ jtwc_io IO101970 22.9000 61.0000 -1 22.9000 61.0000 TC 25 22.9016 61.0265 3 2 270
1970245N22087 1970 102 NI AS NOT_NAMED 1970-09-13 03:00:00 NR 22.9000 60.9000 main 125 __________O___ IO101970 -1 TC 22.9000 60.9000 1 2 270

IBTrACS Databaseについて

本データベースは、米国NOAAが公開する1842年以降の世界の熱帯低気圧のベストトラックデータアーカイブInternational Best Track Archive for Climate Stewardship (IBTrACS)を、ウェブで閲覧しやすい形式に変換したものです。

最終更新日:2021-10-21